createdAt,value
2023-02-10T00:00:36.524Z,0.54
2023-02-10T00:04:01.825Z,0.56
2023-02-10T00:07:26.955Z,0.61
2023-02-10T00:10:52.183Z,0.65
2023-02-10T00:14:17.350Z,0.71
2023-02-10T00:17:42.537Z,0.7
2023-02-10T00:21:07.747Z,0.66
2023-02-10T00:24:32.934Z,0.64
2023-02-10T00:27:58.165Z,0.55
2023-02-10T00:31:23.372Z,0.51
2023-02-10T00:34:48.488Z,0.47
2023-02-10T00:38:13.667Z,0.44
2023-02-10T00:41:38.855Z,0.4
2023-02-10T00:45:04.060Z,0.35
2023-02-10T00:48:29.233Z,0.31
2023-02-10T00:51:54.448Z,0.31
2023-02-10T00:55:19.630Z,0.3
2023-02-10T00:58:44.850Z,0.31
2023-02-10T01:02:10.060Z,0.34
2023-02-10T01:05:35.210Z,0.36
2023-02-10T01:09:00.389Z,0.39
2023-02-10T01:12:25.564Z,0.43
2023-02-10T01:15:51.035Z,0.48
2023-02-10T01:19:16.329Z,0.52
2023-02-10T01:22:41.518Z,0.53
2023-02-10T01:26:06.723Z,0.55
2023-02-10T01:29:31.955Z,0.58
2023-02-10T01:32:57.159Z,0.6
2023-02-10T01:36:22.411Z,0.6
2023-02-10T01:39:47.576Z,0.61
2023-02-10T01:43:12.786Z,0.62
2023-02-10T01:46:38.000Z,0.63
2023-02-10T01:50:03.239Z,0.62
2023-02-10T01:53:28.432Z,0.63
2023-02-10T01:56:53.648Z,0.62
2023-02-10T02:00:18.870Z,0.62
2023-02-10T02:03:44.079Z,0.64
2023-02-10T02:07:09.285Z,0.65
2023-02-10T02:10:34.515Z,0.7
2023-02-10T02:13:59.736Z,0.66
2023-02-10T02:17:24.916Z,0.62
2023-02-10T02:20:50.107Z,0.63
2023-02-10T02:24:15.293Z,0.61
2023-02-10T02:27:40.516Z,0.64
2023-02-10T02:31:05.750Z,0.64
2023-02-10T02:34:30.880Z,0.61
2023-02-10T02:37:56.060Z,0.62
2023-02-10T02:41:21.274Z,0.63
2023-02-10T02:44:46.499Z,0.61
2023-02-10T02:48:11.712Z,0.63
2023-02-10T02:51:36.898Z,0.69
2023-02-10T02:55:02.090Z,0.73
2023-02-10T02:58:27.283Z,0.71
2023-02-10T03:01:52.543Z,0.73
2023-02-10T03:05:17.739Z,0.72
2023-02-10T03:08:42.918Z,0.72
2023-02-10T03:12:08.165Z,0.75
2023-02-10T03:15:33.387Z,0.76
2023-02-10T03:18:58.571Z,0.76
2023-02-10T03:22:23.771Z,0.79
2023-02-10T03:25:49.303Z,0.82
2023-02-10T03:29:14.257Z,0.86
2023-02-10T03:32:39.486Z,0.95
2023-02-10T03:36:04.701Z,0.99
2023-02-10T03:39:29.884Z,0.93
2023-02-10T03:42:55.081Z,0.97
2023-02-10T03:46:20.360Z,0.98
2023-02-10T03:49:45.535Z,1
2023-02-10T03:53:10.753Z,1.01
2023-02-10T03:56:35.950Z,1.06
2023-02-10T04:00:01.209Z,1.08
2023-02-10T04:03:26.441Z,1.1
2023-02-10T04:06:51.648Z,1.14
2023-02-10T04:10:16.909Z,1.22
2023-02-10T04:13:42.100Z,1.32
2023-02-10T04:17:07.300Z,1.42
2023-02-10T04:20:32.522Z,1.49
2023-02-10T04:23:57.706Z,1.54
2023-02-10T04:27:22.936Z,1.58
2023-02-10T04:30:48.168Z,1.63
2023-02-10T04:34:13.340Z,1.67
2023-02-10T04:37:38.553Z,1.7
2023-02-10T04:41:03.880Z,1.73
2023-02-10T04:44:29.070Z,1.79
2023-02-10T04:47:54.242Z,1.83
2023-02-10T04:51:19.457Z,1.85
2023-02-10T04:54:44.644Z,1.83
2023-02-10T04:58:09.837Z,1.77
2023-02-10T05:01:35.190Z,1.72
2023-02-10T05:05:00.248Z,1.73
2023-02-10T05:08:25.459Z,1.73
2023-02-10T05:11:50.656Z,1.76
2023-02-10T05:15:15.900Z,1.81
2023-02-10T05:18:41.098Z,1.91
2023-02-10T05:22:06.293Z,1.96
2023-02-10T05:25:31.465Z,2.01
2023-02-10T05:28:56.666Z,2.07
2023-02-10T05:32:21.889Z,2.12
2023-02-10T05:35:47.393Z,2.15
2023-02-10T05:39:12.308Z,2.19
2023-02-10T05:42:37.484Z,2.24
2023-02-10T05:46:02.765Z,2.31
2023-02-10T05:49:27.945Z,2.33
2023-02-10T05:52:53.198Z,2.31
2023-02-10T05:56:18.368Z,2.31
2023-02-10T05:59:43.597Z,2.35
2023-02-10T06:03:09.584Z,2.36
2023-02-10T06:06:33.982Z,2.39
2023-02-10T06:09:59.234Z,2.44
2023-02-10T06:13:24.418Z,2.48
2023-02-10T06:16:49.617Z,2.51
2023-02-10T06:20:14.835Z,2.51
2023-02-10T06:23:40.016Z,2.4
2023-02-10T06:27:05.246Z,2.43
2023-02-10T06:30:30.517Z,2.47
2023-02-10T06:33:55.662Z,2.45
2023-02-10T06:37:20.877Z,2.47
2023-02-10T06:40:46.081Z,2.47
2023-02-10T06:44:11.295Z,2.46
2023-02-10T06:47:36.469Z,2.49
2023-02-10T06:51:01.642Z,2.49
2023-02-10T06:54:26.839Z,2.48
2023-02-10T06:57:52.061Z,2.48
2023-02-10T07:01:17.326Z,2.48
2023-02-10T07:04:42.503Z,2.49
2023-02-10T07:08:09.000Z,2.52
2023-02-10T07:11:32.981Z,2.6
2023-02-10T07:14:58.204Z,2.69
2023-02-10T07:18:23.464Z,2.75
2023-02-10T07:21:48.694Z,2.77
2023-02-10T07:25:13.878Z,2.76
2023-02-10T07:28:39.068Z,2.81
2023-02-10T07:32:04.324Z,2.87
2023-02-10T07:35:29.541Z,2.91
2023-02-10T07:38:54.712Z,2.95
2023-02-10T07:42:19.936Z,2.99
2023-02-10T07:45:45.117Z,3.04
2023-02-10T07:49:10.320Z,3.11
2023-02-10T07:52:35.528Z,3.18
2023-02-10T07:56:00.682Z,3.22
2023-02-10T07:59:25.982Z,3.28
2023-02-10T08:02:51.171Z,3.3
2023-02-10T08:06:16.342Z,3.26
2023-02-10T08:09:41.651Z,3.29
2023-02-10T08:13:06.814Z,3.31
2023-02-10T08:16:32.162Z,3.35
2023-02-10T08:19:57.548Z,3.39
2023-02-10T08:23:22.736Z,3.46
2023-02-10T08:26:47.967Z,3.55
2023-02-10T08:30:13.159Z,3.64
2023-02-10T08:33:46.264Z,3.65
2023-02-10T08:37:03.540Z,3.67
2023-02-10T08:40:28.704Z,3.69
2023-02-10T08:43:54.001Z,3.76
2023-02-10T08:47:19.275Z,3.8
2023-02-10T08:50:47.033Z,3.9
2023-02-10T08:54:12.230Z,3.98
2023-02-10T08:57:37.442Z,4.08
2023-02-10T09:01:03.671Z,4.24
2023-02-10T09:04:28.806Z,4.33
2023-02-10T09:07:54.021Z,4.39
2023-02-10T09:11:19.199Z,4.38
2023-02-10T09:14:44.387Z,4.35
2023-02-10T09:18:09.608Z,4.35
2023-02-10T09:21:46.053Z,4.37
2023-02-10T09:24:59.940Z,4.46
2023-02-10T09:28:25.225Z,4.5
2023-02-10T09:31:50.428Z,4.48
2023-02-10T09:35:15.676Z,4.41
2023-02-10T09:38:40.779Z,4.45
2023-02-10T09:42:05.957Z,4.63
2023-02-10T09:45:31.206Z,4.8
2023-02-10T09:48:56.376Z,4.93
2023-02-10T09:52:21.614Z,5.06
2023-02-10T09:55:47.091Z,5.12
2023-02-10T09:59:11.991Z,5.23
2023-02-10T10:02:37.295Z,5.36
2023-02-10T10:06:02.476Z,5.41
2023-02-10T10:09:27.688Z,5.45
2023-02-10T10:12:52.826Z,5.53
2023-02-10T10:16:18.064Z,5.53
2023-02-10T10:19:43.234Z,5.52
2023-02-10T10:23:08.455Z,5.59
2023-02-10T10:26:36.632Z,5.68
2023-02-10T10:29:58.808Z,5.81
2023-02-10T10:33:24.013Z,5.96
2023-02-10T10:36:49.227Z,5.98
2023-02-10T10:40:14.404Z,6
2023-02-10T10:43:39.675Z,6.03
2023-02-10T10:47:04.849Z,6.01
2023-02-10T10:50:30.067Z,5.99
2023-02-10T10:53:55.328Z,6.1
2023-02-10T10:57:20.576Z,6.22
2023-02-10T11:00:45.749Z,6.37
2023-02-10T11:04:10.949Z,6.5
2023-02-10T11:07:36.180Z,6.63
2023-02-10T11:11:01.363Z,6.81
2023-02-10T11:14:26.660Z,6.98
2023-02-10T11:17:51.901Z,7.07
2023-02-10T11:21:17.092Z,7.16
2023-02-10T11:24:42.296Z,7.19
2023-02-10T11:28:07.611Z,7.13
2023-02-10T11:31:32.886Z,7.07
2023-02-10T11:34:58.036Z,7.01
2023-02-10T11:38:23.749Z,6.93
2023-02-10T11:41:48.976Z,6.91
2023-02-10T11:45:14.183Z,6.9
2023-02-10T11:48:39.351Z,6.86
2023-02-10T11:52:04.543Z,6.91
2023-02-10T11:55:29.709Z,6.92
2023-02-10T11:58:54.911Z,6.88
2023-02-10T12:02:20.173Z,6.86
2023-02-10T12:05:45.354Z,6.72
2023-02-10T12:09:10.563Z,6.63
2023-02-10T12:12:35.750Z,6.6
2023-02-10T12:16:01.001Z,6.61
2023-02-10T12:19:26.164Z,6.62
2023-02-10T12:22:51.340Z,6.63
2023-02-10T12:26:16.605Z,6.69
2023-02-10T12:29:41.757Z,6.74
2023-02-10T12:33:06.948Z,6.76
2023-02-10T12:36:32.119Z,6.62
2023-02-10T12:39:57.300Z,6.51
2023-02-10T12:43:22.533Z,6.4
2023-02-10T12:46:47.880Z,6.25
2023-02-10T12:50:12.986Z,6.16
2023-02-10T12:53:38.183Z,6.08
2023-02-10T12:57:03.413Z,6.03
2023-02-10T13:00:28.640Z,6.01
2023-02-10T13:03:54.006Z,5.96
2023-02-10T13:07:19.223Z,5.92
2023-02-10T13:10:44.413Z,5.94
2023-02-10T13:14:10.217Z,6.03
2023-02-10T13:17:35.396Z,6.1
2023-02-10T13:21:00.536Z,6.13
2023-02-10T13:24:25.710Z,6.13
2023-02-10T13:27:50.902Z,6.12
2023-02-10T13:31:16.127Z,6.09
2023-02-10T13:34:41.298Z,6.03
2023-02-10T13:38:06.464Z,5.98
2023-02-10T13:41:31.628Z,5.85
2023-02-10T13:44:56.870Z,5.74
2023-02-10T13:48:22.086Z,5.68
2023-02-10T13:51:47.321Z,5.69
2023-02-10T13:55:12.491Z,5.74
2023-02-10T13:58:37.678Z,5.87
2023-02-10T14:02:02.901Z,5.92
2023-02-10T14:05:28.113Z,5.97
2023-02-10T14:08:59.860Z,6
2023-02-10T14:12:18.510Z,5.91
2023-02-10T14:15:43.751Z,5.85
2023-02-10T14:19:08.921Z,5.75
2023-02-10T14:22:34.806Z,5.7
2023-02-10T14:25:59.372Z,5.64
2023-02-10T14:29:24.529Z,5.58
2023-02-10T15:05:04.062Z,2.94
2023-02-10T15:08:29.224Z,3.9
2023-02-10T15:11:54.422Z,4.11
2023-02-10T15:15:19.697Z,4.25
2023-02-10T15:18:45.035Z,4.31
2023-02-10T15:22:10.527Z,4.31
2023-02-10T15:25:35.779Z,4.27
2023-02-10T15:29:01.001Z,4.21
2023-02-10T15:32:26.261Z,4.11
2023-02-10T15:35:58.098Z,4.09
2023-02-10T15:39:16.738Z,4.09
2023-02-10T15:42:41.965Z,4.03
2023-02-10T15:46:07.250Z,3.94
2023-02-10T15:49:32.481Z,3.92
2023-02-10T15:52:57.732Z,3.95
2023-02-10T15:56:22.997Z,3.99
2023-02-10T15:59:48.248Z,4.03
2023-02-10T16:03:13.599Z,4.01
2023-02-10T16:06:38.771Z,4.02
2023-02-10T16:10:04.017Z,4.01
2023-02-10T16:13:29.306Z,4.04
2023-02-10T16:16:54.513Z,4
2023-02-10T16:20:19.736Z,3.98
2023-02-10T16:23:45.009Z,3.98
2023-02-10T16:27:10.246Z,3.98
2023-02-10T16:30:36.520Z,3.97
2023-02-10T16:34:01.700Z,3.93
2023-02-10T16:37:26.981Z,3.87
2023-02-10T16:40:52.253Z,3.78
2023-02-10T16:44:17.552Z,3.64
2023-02-10T16:47:42.783Z,3.5
2023-02-10T16:51:07.938Z,3.36
2023-02-10T16:54:33.108Z,3.3
2023-02-10T16:57:58.287Z,3.22
2023-02-10T17:01:23.510Z,3.25
2023-02-10T17:04:48.737Z,3.27
2023-02-10T17:08:13.883Z,3.2
2023-02-10T17:11:39.072Z,3.18
2023-02-10T17:15:04.251Z,3.19
2023-02-10T17:18:29.425Z,3.2
2023-02-10T17:21:54.634Z,3.2
2023-02-10T17:25:19.815Z,3.23
2023-02-10T17:28:44.988Z,3.24
2023-02-10T17:32:10.267Z,3.24
2023-02-10T17:35:35.420Z,3.18
2023-02-10T17:39:00.633Z,3.12
2023-02-10T17:42:25.807Z,3.06
2023-02-10T17:45:51.249Z,3.08
2023-02-10T17:49:16.251Z,3.04
2023-02-10T17:52:41.446Z,3.07
2023-02-10T17:56:06.631Z,3.04
2023-02-10T17:59:31.790Z,2.99
2023-02-10T18:02:56.999Z,2.98
2023-02-10T18:06:22.194Z,2.98
2023-02-10T18:09:47.372Z,2.96
2023-02-10T18:13:12.552Z,2.89
2023-02-10T18:16:37.767Z,2.88
2023-02-10T18:20:02.882Z,2.86
2023-02-10T18:23:28.065Z,2.8
2023-02-10T18:26:53.261Z,2.75
2023-02-10T18:30:18.464Z,2.69
2023-02-10T18:33:43.600Z,2.6
2023-02-10T18:37:08.827Z,2.6
2023-02-10T18:40:34.060Z,2.64
2023-02-10T18:43:59.213Z,2.64
2023-02-10T18:47:25.284Z,2.59
2023-02-10T18:50:49.559Z,2.63
2023-02-10T18:54:14.743Z,2.59
2023-02-10T18:57:39.918Z,2.57
2023-02-10T19:01:05.148Z,2.6
2023-02-10T19:04:30.329Z,2.56
2023-02-10T19:07:55.479Z,2.55
2023-02-10T19:11:20.663Z,2.52
2023-02-10T19:14:45.840Z,2.5
2023-02-10T19:18:11.024Z,2.45
2023-02-10T19:21:36.240Z,2.5
2023-02-10T19:25:01.392Z,2.55
2023-02-10T19:28:26.682Z,2.54
2023-02-10T19:31:51.826Z,2.5
2023-02-10T19:35:16.919Z,2.48
2023-02-10T19:38:43.090Z,2.45
2023-02-10T19:42:08.241Z,2.47
2023-02-10T19:45:33.439Z,2.45
2023-02-10T19:48:58.620Z,2.43
2023-02-10T19:52:23.817Z,2.42
2023-02-10T19:55:49.338Z,2.43
2023-02-10T19:59:14.247Z,2.45
2023-02-10T20:02:39.494Z,2.46
2023-02-10T20:06:04.628Z,2.45
2023-02-10T20:09:29.832Z,2.43
2023-02-10T20:12:55.045Z,2.48
2023-02-10T20:16:20.287Z,2.48
2023-02-10T20:19:45.376Z,2.52
2023-02-10T20:23:10.620Z,2.55
2023-02-10T20:26:35.796Z,2.57
2023-02-10T20:30:01.005Z,2.56
2023-02-10T20:33:26.169Z,2.64
2023-02-10T20:36:51.353Z,2.72
2023-02-10T20:40:16.516Z,2.67
2023-02-10T20:43:41.714Z,2.61
2023-02-10T20:47:06.923Z,2.56
2023-02-10T20:50:32.066Z,2.53
2023-02-10T20:53:57.268Z,2.55
2023-02-10T20:57:22.445Z,2.58
2023-02-10T21:00:47.629Z,2.63
2023-02-10T21:04:12.833Z,2.64
2023-02-10T21:07:38.016Z,2.6
2023-02-10T21:11:03.175Z,2.57
2023-02-10T21:14:28.389Z,2.54
2023-02-10T21:17:53.554Z,2.54
2023-02-10T21:21:18.766Z,2.55
2023-02-10T21:24:43.944Z,2.55
2023-02-10T21:28:09.184Z,2.56
2023-02-10T21:31:34.315Z,2.57
2023-02-10T21:34:59.503Z,2.53
2023-02-10T21:38:24.702Z,2.51
2023-02-10T21:41:49.852Z,2.47
2023-02-10T21:45:15.012Z,2.39
2023-02-10T21:48:40.187Z,2.39
2023-02-10T21:52:05.382Z,2.41
2023-02-10T21:55:30.590Z,2.38
2023-02-10T21:58:55.751Z,2.33
2023-02-10T22:02:20.986Z,2.33
2023-02-10T22:05:46.170Z,2.3
2023-02-10T22:09:11.382Z,2.35
2023-02-10T22:12:36.601Z,2.34
2023-02-10T22:16:01.776Z,2.34
2023-02-10T22:19:26.998Z,2.3
2023-02-10T22:22:52.234Z,2.29
2023-02-10T22:26:17.442Z,2.23
2023-02-10T22:29:42.653Z,2.19
2023-02-10T22:33:07.840Z,2.17
2023-02-10T22:36:33.032Z,2.15
2023-02-10T22:39:58.235Z,2.13
2023-02-10T22:43:23.454Z,2.17
2023-02-10T22:46:48.712Z,2.23
2023-02-10T22:50:13.851Z,2.24
2023-02-10T22:53:39.053Z,2.25
2023-02-10T22:57:04.250Z,2.24
2023-02-10T23:00:29.466Z,2.26
2023-02-10T23:03:54.682Z,2.27
2023-02-10T23:07:19.855Z,2.29
2023-02-10T23:10:45.082Z,2.31
2023-02-10T23:14:10.286Z,2.33
2023-02-10T23:17:35.473Z,2.3
2023-02-10T23:21:00.670Z,2.29
2023-02-10T23:24:25.857Z,2.26
2023-02-10T23:27:51.054Z,2.24
2023-02-10T23:31:16.361Z,2.27
2023-02-10T23:34:41.425Z,2.29
2023-02-10T23:38:06.670Z,2.33
2023-02-10T23:41:31.858Z,2.33
2023-02-10T23:44:57.051Z,2.38
2023-02-10T23:48:22.239Z,2.38
2023-02-10T23:51:47.412Z,2.37
2023-02-10T23:55:12.674Z,2.38
2023-02-10T23:58:37.850Z,2.4
